sensor_id;sensor_type;location;lat;lon;timestamp;pressure;altitude;pressure_sealevel;temperature;humidity
49827;BME280;35715;51.570;6.036;2022-11-30T00:01:20;102100.38;;;8.92;100.00
49827;BME280;35715;51.570;6.036;2022-11-30T00:03:46;102099.97;;;8.87;100.00
49827;BME280;35715;51.570;6.036;2022-11-30T00:06:16;102098.47;;;8.89;100.00
49827;BME280;35715;51.570;6.036;2022-11-30T00:08:47;102094.94;;;8.88;100.00
49827;BME280;35715;51.570;6.036;2022-11-30T00:11:14;102095.88;;;8.89;100.00
49827;BME280;35715;51.570;6.036;2022-11-30T00:13:40;102100.38;;;8.92;100.00
49827;BME280;35715;51.570;6.036;2022-11-30T00:16:10;102102.22;;;8.93;100.00
49827;BME280;35715;51.570;6.036;2022-11-30T00:18:36;102095.53;;;8.95;100.00
49827;BME280;35715;51.570;6.036;2022-11-30T00:21:05;102098.09;;;8.95;100.00
49827;BME280;35715;51.570;6.036;2022-11-30T00:23:37;102097.22;;;8.94;100.00
49827;BME280;35715;51.570;6.036;2022-11-30T00:26:18;102097.06;;;8.93;100.00
49827;BME280;35715;51.570;6.036;2022-11-30T00:28:43;102102.06;;;8.91;100.00
49827;BME280;35715;51.570;6.036;2022-11-30T00:31:13;102094.63;;;8.94;100.00
49827;BME280;35715;51.570;6.036;2022-11-30T00:33:39;102096.59;;;8.97;100.00
49827;BME280;35715;51.570;6.036;2022-11-30T00:36:13;102098.44;;;8.98;100.00
49827;BME280;35715;51.570;6.036;2022-11-30T00:38:39;102090.56;;;8.96;100.00
49827;BME280;35715;51.570;6.036;2022-11-30T00:41:06;102086.44;;;8.98;100.00
49827;BME280;35715;51.570;6.036;2022-11-30T00:43:31;102084.47;;;8.96;100.00
49827;BME280;35715;51.570;6.036;2022-11-30T00:45:58;102095.84;;;8.98;100.00
49827;BME280;35715;51.570;6.036;2022-11-30T00:48:23;102087.97;;;8.96;100.00
49827;BME280;35715;51.570;6.036;2022-11-30T00:50:49;102094.03;;;8.97;100.00
49827;BME280;35715;51.570;6.036;2022-11-30T00:53:15;102093.28;;;8.98;100.00
49827;BME280;35715;51.570;6.036;2022-11-30T00:55:48;102087.19;;;8.97;100.00
49827;BME280;35715;51.570;6.036;2022-11-30T00:58:14;102100.06;;;8.97;100.00
49827;BME280;35715;51.570;6.036;2022-11-30T01:00:39;102097.34;;;8.96;100.00
49827;BME280;35715;51.570;6.036;2022-11-30T01:03:05;102097.81;;;8.92;100.00
49827;BME280;35715;51.570;6.036;2022-11-30T01:05:49;102106.19;;;8.89;100.00
49827;BME280;35715;51.570;6.036;2022-11-30T01:08:15;102103.47;;;8.87;100.00
49827;BME280;35715;51.570;6.036;2022-11-30T01:10:41;102111.03;;;8.86;100.00
49827;BME280;35715;51.570;6.036;2022-11-30T01:13:08;102111.94;;;8.86;100.00
49827;BME280;35715;51.570;6.036;2022-11-30T01:18:41;102117.06;;;8.86;100.00
49827;BME280;35715;51.570;6.036;2022-11-30T01:21:09;102121.47;;;8.87;100.00
49827;BME280;35715;51.570;6.036;2022-11-30T01:23:34;102123.13;;;8.87;100.00
49827;BME280;35715;51.570;6.036;2022-11-30T01:26:18;102132.09;;;8.82;100.00
49827;BME280;35715;51.570;6.036;2022-11-30T01:28:44;102123.31;;;8.80;100.00
49827;BME280;35715;51.570;6.036;2022-11-30T01:31:13;102130.91;;;8.78;100.00
49827;BME280;35715;51.570;6.036;2022-11-30T01:33:39;102128.03;;;8.75;100.00
49827;BME280;35715;51.570;6.036;2022-11-30T01:36:09;102134.38;;;8.79;100.00
49827;BME280;35715;51.570;6.036;2022-11-30T01:38:37;102130.59;;;8.75;100.00
49827;BME280;35715;51.570;6.036;2022-11-30T01:41:04;102140.91;;;8.75;100.00
49827;BME280;35715;51.570;6.036;2022-11-30T01:43:43;102129.09;;;8.68;100.00
49827;BME280;35715;51.570;6.036;2022-11-30T01:49:34;102133.94;;;8.65;100.00
49827;BME280;35715;51.570;6.036;2022-11-30T01:52:25;102126.69;;;8.61;100.00
49827;BME280;35715;51.570;6.036;2022-11-30T01:55:19;102130.63;;;8.58;99.76
49827;BME280;35715;51.570;6.036;2022-11-30T02:00:12;102130.50;;;8.56;100.00
49827;BME280;35715;51.570;6.036;2022-11-30T02:03:02;102139.75;;;8.54;99.89
49827;BME280;35715;51.570;6.036;2022-11-30T02:05:36;102136.53;;;8.39;100.00
49827;BME280;35715;51.570;6.036;2022-11-30T02:08:04;102145.63;;;8.44;100.00
49827;BME280;35715;51.570;6.036;2022-11-30T02:10:31;102139.28;;;8.49;100.00
49827;BME280;35715;51.570;6.036;2022-11-30T02:15:52;102145.34;;;8.50;100.00
49827;BME280;35715;51.570;6.036;2022-11-30T02:18:29;102135.66;;;8.47;99.98
49827;BME280;35715;51.570;6.036;2022-11-30T02:21:05;102138.38;;;8.49;99.87
49827;BME280;35715;51.570;6.036;2022-11-30T02:30:06;102142.88;;;8.43;99.84
49827;BME280;35715;51.570;6.036;2022-11-30T02:32:38;102143.22;;;8.46;100.00
49827;BME280;35715;51.570;6.036;2022-11-30T02:35:08;102146.09;;;8.49;100.00
49827;BME280;35715;51.570;6.036;2022-11-30T02:37:35;102152.31;;;8.51;100.00
49827;BME280;35715;51.570;6.036;2022-11-30T02:40:07;102147.16;;;8.51;100.00
49827;BME280;35715;51.570;6.036;2022-11-30T02:42:34;102142.91;;;8.51;100.00
49827;BME280;35715;51.570;6.036;2022-11-30T02:44:59;102146.22;;;8.50;100.00
49827;BME280;35715;51.570;6.036;2022-11-30T02:47:30;102144.59;;;8.51;99.98
49827;BME280;35715;51.570;6.036;2022-11-30T02:50:21;102143.38;;;8.47;99.29
49827;BME280;35715;51.570;6.036;2022-11-30T02:52:49;102136.72;;;8.49;99.65
49827;BME280;35715;51.570;6.036;2022-11-30T02:55:16;102144.44;;;8.49;99.81
49827;BME280;35715;51.570;6.036;2022-11-30T02:57:42;102138.38;;;8.49;99.68
49827;BME280;35715;51.570;6.036;2022-11-30T03:00:09;102139.91;;;8.47;99.83
49827;BME280;35715;51.570;6.036;2022-11-30T03:02:38;102137.19;;;8.45;99.69
49827;BME280;35715;51.570;6.036;2022-11-30T03:05:04;102145.78;;;8.46;99.66
49827;BME280;35715;51.570;6.036;2022-11-30T03:07:29;102140.66;;;8.46;99.77
49827;BME280;35715;51.570;6.036;2022-11-30T03:09:55;102149.28;;;8.46;99.91
49827;BME280;35715;51.570;6.036;2022-11-30T03:12:20;102148.34;;;8.46;99.65
49827;BME280;35715;51.570;6.036;2022-11-30T03:14:46;102145.63;;;8.44;99.65
49827;BME280;35715;51.570;6.036;2022-11-30T03:17:11;102152.28;;;8.42;99.14
49827;BME280;35715;51.570;6.036;2022-11-30T03:19:36;102157.41;;;8.42;99.16
49827;BME280;35715;51.570;6.036;2022-11-30T03:22:02;102155.75;;;8.43;99.23
49827;BME280;35715;51.570;6.036;2022-11-30T03:24:27;102157.59;;;8.44;99.24
49827;BME280;35715;51.570;6.036;2022-11-30T03:26:54;102155.75;;;8.43;99.19
49827;BME280;35715;51.570;6.036;2022-11-30T03:29:20;102160.88;;;8.43;99.32
49827;BME280;35715;51.570;6.036;2022-11-30T03:31:45;102153.91;;;8.42;99.09
49827;BME280;35715;51.570;6.036;2022-11-30T03:34:10;102156.50;;;8.42;99.33
49827;BME280;35715;51.570;6.036;2022-11-30T03:36:36;102149.56;;;8.41;98.75
49827;BME280;35715;51.570;6.036;2022-11-30T03:39:01;102163.31;;;8.41;99.29
49827;BME280;35715;51.570;6.036;2022-11-30T03:41:27;102165.72;;;8.40;99.23
49827;BME280;35715;51.570;6.036;2022-11-30T03:43:52;102172.56;;;8.39;99.12
49827;BME280;35715;51.570;6.036;2022-11-30T03:46:25;102166.47;;;8.39;98.92
49827;BME280;35715;51.570;6.036;2022-11-30T03:48:51;102165.44;;;8.37;99.08
49827;BME280;35715;51.570;6.036;2022-11-30T03:51:17;102169.06;;;8.39;99.13
49827;BME280;35715;51.570;6.036;2022-11-30T03:53:42;102166.19;;;8.35;99.00
49827;BME280;35715;51.570;6.036;2022-11-30T03:56:11;102165.28;;;8.35;99.09
49827;BME280;35715;51.570;6.036;2022-11-30T03:58:36;102162.56;;;8.33;99.24
49827;BME280;35715;51.570;6.036;2022-11-30T04:01:13;102166.03;;;8.34;99.15
49827;BME280;35715;51.570;6.036;2022-11-30T04:03:40;102166.03;;;8.34;99.19
49827;BME280;35715;51.570;6.036;2022-11-30T04:06:10;102164.25;;;8.33;99.01
49827;BME280;35715;51.570;6.036;2022-11-30T04:08:37;102166.03;;;8.34;98.95
49827;BME280;35715;51.570;6.036;2022-11-30T04:11:04;102170.28;;;8.33;98.83
49827;BME280;35715;51.570;6.036;2022-11-30T04:13:31;102166.81;;;8.33;98.71
49827;BME280;35715;51.570;6.036;2022-11-30T04:15:59;102168.44;;;8.32;98.49
49827;BME280;35715;51.570;6.036;2022-11-30T04:18:25;102168.31;;;8.31;98.39
49827;BME280;35715;51.570;6.036;2022-11-30T04:20:53;102170.72;;;8.29;98.44
49827;BME280;35715;51.570;6.036;2022-11-30T04:23:20;102166.38;;;8.28;98.41
49827;BME280;35715;51.570;6.036;2022-11-30T04:25:46;102171.50;;;8.28;98.43
49827;BME280;35715;51.570;6.036;2022-11-30T04:28:12;102163.66;;;8.27;98.09
49827;BME280;35715;51.570;6.036;2022-11-30T04:30:38;102157.28;;;8.23;97.79
49827;BME280;35715;51.570;6.036;2022-11-30T04:33:04;102161.38;;;8.21;97.84
49827;BME280;35715;51.570;6.036;2022-11-30T04:35:31;102161.06;;;8.18;98.03
49827;BME280;35715;51.570;6.036;2022-11-30T04:37:57;102162.75;;;8.17;98.09
49827;BME280;35715;51.570;6.036;2022-11-30T04:40:22;102160.78;;;8.15;97.88
49827;BME280;35715;51.570;6.036;2022-11-30T04:42:48;102169.50;;;8.08;97.53
49827;BME280;35715;51.570;6.036;2022-11-30T04:45:13;102163.63;;;8.00;97.19
49827;BME280;35715;51.570;6.036;2022-11-30T04:47:38;102170.25;;;7.90;97.16
49827;BME280;35715;51.570;6.036;2022-11-30T04:50:05;102171.78;;;7.79;97.24
49827;BME280;35715;51.570;6.036;2022-11-30T04:52:31;102167.22;;;7.68;97.32
49827;BME280;35715;51.570;6.036;2022-11-30T04:54:57;102174.91;;;7.59;97.41
49827;BME280;35715;51.570;6.036;2022-11-30T04:57:23;102175.19;;;7.53;97.63
49827;BME280;35715;51.570;6.036;2022-11-30T04:59:49;102181.22;;;7.45;97.24
49827;BME280;35715;51.570;6.036;2022-11-30T05:02:14;102168.34;;;7.36;97.47
49827;BME280;35715;51.570;6.036;2022-11-30T05:04:39;102173.03;;;7.32;97.77
49827;BME280;35715;51.570;6.036;2022-11-30T05:07:10;102178.56;;;7.27;97.45
49827;BME280;35715;51.570;6.036;2022-11-30T05:09:35;102177.91;;;7.13;98.01
49827;BME280;35715;51.570;6.036;2022-11-30T05:12:00;102173.72;;;7.13;97.87
49827;BME280;35715;51.570;6.036;2022-11-30T05:14:26;102178.69;;;7.12;98.31
49827;BME280;35715;51.570;6.036;2022-11-30T05:16:55;102175.03;;;7.09;98.15
49827;BME280;35715;51.570;6.036;2022-11-30T05:19:21;102182.25;;;7.05;98.18
49827;BME280;35715;51.570;6.036;2022-11-30T05:21:46;102182.69;;;7.01;97.85
49827;BME280;35715;51.570;6.036;2022-11-30T05:24:11;102180.72;;;6.98;98.25
49827;BME280;35715;51.570;6.036;2022-11-30T05:26:41;102182.03;;;6.95;97.76
49827;BME280;35715;51.570;6.036;2022-11-30T05:29:06;102185.06;;;6.90;97.87
49827;BME280;35715;51.570;6.036;2022-11-30T05:31:32;102183.97;;;6.88;97.77
49827;BME280;35715;51.570;6.036;2022-11-30T05:33:57;102174.34;;;6.86;97.98
49827;BME280;35715;51.570;6.036;2022-11-30T05:36:28;102186.97;;;6.84;98.08
49827;BME280;35715;51.570;6.036;2022-11-30T05:38:53;102185.16;;;6.83;98.21
49827;BME280;35715;51.570;6.036;2022-11-30T05:41:19;102191.63;;;6.80;98.73
49827;BME280;35715;51.570;6.036;2022-11-30T05:43:44;102194.78;;;6.77;98.54
49827;BME280;35715;51.570;6.036;2022-11-30T05:46:24;102195.22;;;6.73;98.51
49827;BME280;35715;51.570;6.036;2022-11-30T05:48:49;102196.56;;;6.69;98.79
49827;BME280;35715;51.570;6.036;2022-11-30T05:51:16;102187.03;;;6.68;98.73
49827;BME280;35715;51.570;6.036;2022-11-30T05:53:43;102190.19;;;6.66;98.66
49827;BME280;35715;51.570;6.036;2022-11-30T05:56:13;102195.00;;;6.63;98.68
49827;BME280;35715;51.570;6.036;2022-11-30T05:58:39;102192.25;;;6.61;98.59
49827;BME280;35715;51.570;6.036;2022-11-30T06:01:05;102202.78;;;6.55;98.67
49827;BME280;35715;51.570;6.036;2022-11-30T06:03:32;102204.59;;;6.56;98.88
49827;BME280;35715;51.570;6.036;2022-11-30T06:06:04;102207.00;;;6.55;98.72
49827;BME280;35715;51.570;6.036;2022-11-30T06:08:30;102205.94;;;6.53;99.00
49827;BME280;35715;51.570;6.036;2022-11-30T06:10:59;102202.28;;;6.51;99.01
49827;BME280;35715;51.570;6.036;2022-11-30T06:13:25;102199.56;;;6.49;98.95
49827;BME280;35715;51.570;6.036;2022-11-30T06:15:52;102210.59;;;6.48;98.87
49827;BME280;35715;51.570;6.036;2022-11-30T06:18:17;102203.31;;;6.44;99.12
49827;BME280;35715;51.570;6.036;2022-11-30T06:20:43;102216.13;;;6.44;98.84
49827;BME280;35715;51.570;6.036;2022-11-30T06:23:08;102218.53;;;6.43;99.04
49827;BME280;35715;51.570;6.036;2022-11-30T06:25:34;102221.66;;;6.40;98.68
49827;BME280;35715;51.570;6.036;2022-11-30T06:28:00;102216.38;;;6.38;98.91
49827;BME280;35715;51.570;6.036;2022-11-30T06:30:25;102220.13;;;6.33;98.69
49827;BME280;35715;51.570;6.036;2022-11-30T06:32:51;102217.38;;;6.32;98.51
49827;BME280;35715;51.570;6.036;2022-11-30T06:35:20;102216.13;;;6.28;98.38
49827;BME280;35715;51.570;6.036;2022-11-30T06:37:45;102226.06;;;6.25;98.16
49827;BME280;35715;51.570;6.036;2022-11-30T06:40:12;102221.69;;;6.24;98.77
49827;BME280;35715;51.570;6.036;2022-11-30T06:42:38;102230.28;;;6.25;98.76
49827;BME280;35715;51.570;6.036;2022-11-30T06:45:05;102225.72;;;6.22;98.46
49827;BME280;35715;51.570;6.036;2022-11-30T06:47:31;102219.53;;;6.20;98.56
49827;BME280;35715;51.570;6.036;2022-11-30T06:49:57;102223.44;;;6.16;98.32
49827;BME280;35715;51.570;6.036;2022-11-30T06:52:22;102230.81;;;6.13;98.27
49827;BME280;35715;51.570;6.036;2022-11-30T06:54:47;102232.09;;;6.10;97.97
49827;BME280;35715;51.570;6.036;2022-11-30T06:57:29;102234.16;;;6.05;97.75
49827;BME280;35715;51.570;6.036;2022-11-30T06:59:55;102233.09;;;6.03;97.95
49827;BME280;35715;51.570;6.036;2022-11-30T07:02:21;102238.06;;;6.01;97.68
49827;BME280;35715;51.570;6.036;2022-11-30T07:04:46;102238.63;;;5.99;97.44
49827;BME280;35715;51.570;6.036;2022-11-30T07:07:20;102232.25;;;5.95;96.88
49827;BME280;35715;51.570;6.036;2022-11-30T07:09:45;102241.22;;;5.92;96.97
49827;BME280;35715;51.570;6.036;2022-11-30T07:12:10;102240.16;;;5.90;97.22
49827;BME280;35715;51.570;6.036;2022-11-30T07:14:36;102242.41;;;5.86;96.68
49827;BME280;35715;51.570;6.036;2022-11-30T07:17:13;102253.97;;;5.83;96.70
49827;BME280;35715;51.570;6.036;2022-11-30T07:19:38;102255.59;;;5.82;96.55
49827;BME280;35715;51.570;6.036;2022-11-30T07:22:03;102272.13;;;5.77;96.39
49827;BME280;35715;51.570;6.036;2022-11-30T07:24:28;102263.34;;;5.75;97.15
49827;BME280;35715;51.570;6.036;2022-11-30T07:27:16;102275.03;;;5.80;97.34
49827;BME280;35715;51.570;6.036;2022-11-30T07:29:42;102275.41;;;5.76;97.57
49827;BME280;35715;51.570;6.036;2022-11-30T07:32:08;102276.31;;;5.77;97.81
49827;BME280;35715;51.570;6.036;2022-11-30T07:34:33;102281.88;;;5.89;97.95
49827;BME280;35715;51.570;6.036;2022-11-30T07:37:03;102282.56;;;5.95;97.96
49827;BME280;35715;51.570;6.036;2022-11-30T07:39:29;102277.00;;;6.06;97.88
49827;BME280;35715;51.570;6.036;2022-11-30T07:41:54;102283.13;;;6.15;97.82
49827;BME280;35715;51.570;6.036;2022-11-30T07:44:19;102291.31;;;6.20;97.86
49827;BME280;35715;51.570;6.036;2022-11-30T07:46:47;102292.69;;;6.25;98.33
49827;BME280;35715;51.570;6.036;2022-11-30T07:49:12;102297.00;;;6.33;98.24
49827;BME280;35715;51.570;6.036;2022-11-30T07:51:38;102301.91;;;6.39;98.91
49827;BME280;35715;51.570;6.036;2022-11-30T07:54:03;102291.53;;;6.46;98.33
49827;BME280;35715;51.570;6.036;2022-11-30T07:56:31;102301.72;;;6.53;98.27
49827;BME280;35715;51.570;6.036;2022-11-30T07:58:59;102299.97;;;6.61;98.27
49827;BME280;35715;51.570;6.036;2022-11-30T08:01:29;102297.00;;;6.65;98.08
49827;BME280;35715;51.570;6.036;2022-11-30T08:03:55;102299.31;;;6.71;97.82
49827;BME280;35715;51.570;6.036;2022-11-30T08:06:26;102304.28;;;6.69;97.18
49827;BME280;35715;51.570;6.036;2022-11-30T08:08:53;102296.16;;;6.73;97.48
49827;BME280;35715;51.570;6.036;2022-11-30T08:11:25;102298.47;;;6.79;97.62
49827;BME280;35715;51.570;6.036;2022-11-30T08:13:52;102304.06;;;6.84;97.36
49827;BME280;35715;51.570;6.036;2022-11-30T08:16:39;102309.94;;;6.83;97.09
49827;BME280;35715;51.570;6.036;2022-11-30T08:19:07;102317.22;;;6.87;97.28
49827;BME280;35715;51.570;6.036;2022-11-30T08:21:32;102316.97;;;6.92;97.10
49827;BME280;35715;51.570;6.036;2022-11-30T08:23:58;102314.72;;;6.96;97.52
49827;BME280;35715;51.570;6.036;2022-11-30T08:26:32;102313.72;;;7.02;97.37
49827;BME280;35715;51.570;6.036;2022-11-30T08:28:59;102311.63;;;7.07;97.92
49827;BME280;35715;51.570;6.036;2022-11-30T08:31:33;102310.31;;;7.10;97.71
49827;BME280;35715;51.570;6.036;2022-11-30T08:34:01;102306.41;;;7.14;97.81
49827;BME280;35715;51.570;6.036;2022-11-30T08:36:29;102312.78;;;7.18;97.89
49827;BME280;35715;51.570;6.036;2022-11-30T08:38:56;102319.28;;;7.23;98.00
49827;BME280;35715;51.570;6.036;2022-11-30T08:41:22;102318.09;;;7.28;98.07
49827;BME280;35715;51.570;6.036;2022-11-30T08:43:48;102327.06;;;7.32;98.41
49827;BME280;35715;51.570;6.036;2022-11-30T08:49:18;102331.00;;;7.37;98.72
49827;BME280;35715;51.570;6.036;2022-11-30T08:51:45;102334.06;;;7.41;98.80
49827;BME280;35715;51.570;6.036;2022-11-30T08:54:10;102337.09;;;7.46;98.97
49827;BME280;35715;51.570;6.036;2022-11-30T08:56:41;102340.91;;;7.50;98.55
49827;BME280;35715;51.570;6.036;2022-11-30T08:59:06;102339.25;;;7.50;97.99
49827;BME280;35715;51.570;6.036;2022-11-30T09:01:31;102337.72;;;7.52;98.31
49827;BME280;35715;51.570;6.036;2022-11-30T09:03:57;102342.28;;;7.55;97.95
49827;BME280;35715;51.570;6.036;2022-11-30T09:06:32;102333.38;;;7.60;98.16
49827;BME280;35715;51.570;6.036;2022-11-30T09:08:58;102330.72;;;7.67;97.85
49827;BME280;35715;51.570;6.036;2022-11-30T09:11:28;102336.63;;;7.75;97.87
49827;BME280;35715;51.570;6.036;2022-11-30T09:13:55;102333.63;;;7.79;97.90
49827;BME280;35715;51.570;6.036;2022-11-30T09:16:22;102345.13;;;7.82;97.91
49827;BME280;35715;51.570;6.036;2022-11-30T09:18:48;102334.41;;;7.87;97.99
49827;BME280;35715;51.570;6.036;2022-11-30T09:21:16;102336.25;;;7.88;97.66
49827;BME280;35715;51.570;6.036;2022-11-30T09:23:42;102335.31;;;7.87;97.32
49827;BME280;35715;51.570;6.036;2022-11-30T09:26:10;102340.16;;;7.84;97.61
49827;BME280;35715;51.570;6.036;2022-11-30T09:28:36;102349.09;;;7.88;97.51
49827;BME280;35715;51.570;6.036;2022-11-30T09:31:08;102339.72;;;7.88;97.83
49827;BME280;35715;51.570;6.036;2022-11-30T09:33:35;102346.84;;;7.91;97.80
49827;BME280;35715;51.570;6.036;2022-11-30T09:36:20;102354.41;;;7.89;97.65
49827;BME280;35715;51.570;6.036;2022-11-30T09:38:47;102348.31;;;7.89;98.00
49827;BME280;35715;51.570;6.036;2022-11-30T09:44:37;102357.56;;;7.87;98.51
49827;BME280;35715;51.570;6.036;2022-11-30T09:49:56;102346.25;;;7.93;98.47
49827;BME280;35715;51.570;6.036;2022-11-30T09:52:38;102344.75;;;7.95;98.16
49827;BME280;35715;51.570;6.036;2022-11-30T09:55:14;102337.78;;;7.94;98.52
49827;BME280;35715;51.570;6.036;2022-11-30T09:57:48;102347.63;;;7.98;98.49
49827;BME280;35715;51.570;6.036;2022-11-30T10:00:19;102342.47;;;7.98;98.62
49827;BME280;35715;51.570;6.036;2022-11-30T10:02:47;102338.13;;;8.06;98.83
49827;BME280;35715;51.570;6.036;2022-11-30T10:28:06;102324.19;;;8.46;98.26
49827;BME280;35715;51.570;6.036;2022-11-30T10:30:23;102327.66;;;8.47;98.29
49827;BME280;35715;51.570;6.036;2022-11-30T10:32:54;102325.25;;;8.48;97.85
49827;BME280;35715;51.570;6.036;2022-11-30T10:35:43;102327.44;;;8.37;97.45
49827;BME280;35715;51.570;6.036;2022-11-30T10:38:15;102323.50;;;8.40;98.29
49827;BME280;35715;51.570;6.036;2022-11-30T10:40:48;102326.25;;;8.42;97.97
49827;BME280;35715;51.570;6.036;2022-11-30T10:45:51;102328.22;;;8.27;97.48
49827;BME280;35715;51.570;6.036;2022-11-30T10:48:23;102322.53;;;8.47;97.27
49827;BME280;35715;51.570;6.036;2022-11-30T10:50:51;102317.72;;;9.48;95.12
49827;BME280;35715;51.570;6.036;2022-11-30T10:53:17;102311.56;;;10.10;91.94
49827;BME280;35715;51.570;6.036;2022-11-30T10:56:17;102309.56;;;11.11;86.08
49827;BME280;35715;51.570;6.036;2022-11-30T11:04:09;102307.66;;;11.59;78.32
49827;BME280;35715;51.570;6.036;2022-11-30T11:06:57;102304.41;;;11.11;80.27
49827;BME280;35715;51.570;6.036;2022-11-30T11:09:31;102299.91;;;11.59;79.01
49827;BME280;35715;51.570;6.036;2022-11-30T11:12:01;102297.63;;;11.32;79.64
49827;BME280;35715;51.570;6.036;2022-11-30T11:14:28;102301.00;;;11.81;78.90
49827;BME280;35715;51.570;6.036;2022-11-30T11:17:19;102305.84;;;12.07;76.96
49827;BME280;35715;51.570;6.036;2022-11-30T11:19:48;102305.22;;;11.60;78.11
49827;BME280;35715;51.570;6.036;2022-11-30T11:22:17;102308.16;;;10.96;79.01
49827;BME280;35715;51.570;6.036;2022-11-30T11:24:44;102300.25;;;10.65;80.44
49827;BME280;35715;51.570;6.036;2022-11-30T11:30:13;102304.59;;;11.73;77.09
49827;BME280;35715;51.570;6.036;2022-11-30T11:33:17;102311.09;;;12.91;72.65
49827;BME280;35715;51.570;6.036;2022-11-30T11:36:25;102317.06;;;12.80;73.66
49827;BME280;35715;51.570;6.036;2022-11-30T11:38:45;102312.97;;;13.04;72.87
49827;BME280;35715;51.570;6.036;2022-11-30T11:41:17;102316.97;;;12.48;73.41
49827;BME280;35715;51.570;6.036;2022-11-30T11:44:03;102308.75;;;13.27;70.84
49827;BME280;35715;51.570;6.036;2022-11-30T11:46:56;102319.94;;;12.21;72.51
49827;BME280;35715;51.570;6.036;2022-11-30T11:49:25;102303.94;;;11.76;74.37
49827;BME280;35715;51.570;6.036;2022-11-30T11:52:03;102315.59;;;11.81;74.49
49827;BME280;35715;51.570;6.036;2022-11-30T11:54:35;102314.94;;;13.39;70.29
49827;BME280;35715;51.570;6.036;2022-11-30T11:57:13;102318.78;;;14.11;66.57
49827;BME280;35715;51.570;6.036;2022-11-30T11:59:54;102311.88;;;14.45;65.05
49827;BME280;35715;51.570;6.036;2022-11-30T12:05:08;102315.59;;;12.94;68.90
49827;BME280;35715;51.570;6.036;2022-11-30T12:11:00;102299.16;;;12.83;68.69
49827;BME280;35715;51.570;6.036;2022-11-30T12:13:37;102303.63;;;13.49;66.91
49827;BME280;35715;51.570;6.036;2022-11-30T12:22:16;102288.00;;;14.61;62.71
49827;BME280;35715;51.570;6.036;2022-11-30T12:28:05;102296.56;;;15.19;61.64
49827;BME280;35715;51.570;6.036;2022-11-30T12:31:06;102298.72;;;14.66;58.51
49827;BME280;35715;51.570;6.036;2022-11-30T12:39:09;102305.91;;;13.24;65.05
49827;BME280;35715;51.570;6.036;2022-11-30T12:41:50;102306.78;;;12.92;65.00
49827;BME280;35715;51.570;6.036;2022-11-30T12:50:06;102306.97;;;11.90;69.27
49827;BME280;35715;51.570;6.036;2022-11-30T12:58:26;102317.25;;;11.01;71.42
49827;BME280;35715;51.570;6.036;2022-11-30T13:04:20;102307.78;;;10.72;72.79
49827;BME280;35715;51.570;6.036;2022-11-30T13:07:24;102319.09;;;10.45;73.40
49827;BME280;35715;51.570;6.036;2022-11-30T13:10:17;102309.59;;;10.26;73.72
49827;BME280;35715;51.570;6.036;2022-11-30T13:12:48;102311.91;;;10.23;74.31
49827;BME280;35715;51.570;6.036;2022-11-30T13:15:22;102314.47;;;10.23;75.24
49827;BME280;35715;51.570;6.036;2022-11-30T13:17:49;102323.91;;;10.23;75.67
49827;BME280;35715;51.570;6.036;2022-11-30T13:23:04;102324.66;;;9.94;76.34
49827;BME280;35715;51.570;6.036;2022-11-30T13:25:40;102319.91;;;9.71;76.93
49827;BME280;35715;51.570;6.036;2022-11-30T13:30:47;102322.34;;;9.69;75.92
49827;BME280;35715;51.570;6.036;2022-11-30T13:38:46;102315.94;;;9.74;77.97
49827;BME280;35715;51.570;6.036;2022-11-30T13:41:19;102320.81;;;9.71;77.80
49827;BME280;35715;51.570;6.036;2022-11-30T13:43:46;102315.06;;;9.74;78.44
49827;BME280;35715;51.570;6.036;2022-11-30T13:46:20;102324.63;;;9.75;78.66
49827;BME280;35715;51.570;6.036;2022-11-30T13:48:46;102313.97;;;9.72;78.09
49827;BME280;35715;51.570;6.036;2022-11-30T13:51:33;102323.41;;;9.71;77.61
49827;BME280;35715;51.570;6.036;2022-11-30T14:00:03;102324.94;;;9.69;78.53
49827;BME280;35715;51.570;6.036;2022-11-30T14:02:50;102327.22;;;9.66;78.65
49827;BME280;35715;51.570;6.036;2022-11-30T14:05:25;102332.22;;;9.65;78.80
49827;BME280;35715;51.570;6.036;2022-11-30T14:15:52;102319.75;;;9.78;78.50
49827;BME280;35715;51.570;6.036;2022-11-30T14:23:42;102331.56;;;9.76;78.34
49827;BME280;35715;51.570;6.036;2022-11-30T14:26:12;102336.75;;;9.67;78.14
49827;BME280;35715;51.570;6.036;2022-11-30T14:28:46;102347.84;;;9.57;77.79
49827;BME280;35715;51.570;6.036;2022-11-30T14:31:17;102349.69;;;9.58;77.92
49827;BME280;35715;51.570;6.036;2022-11-30T14:36:45;102356.06;;;9.45;78.06
49827;BME280;35715;51.570;6.036;2022-11-30T14:41:50;102353.47;;;9.45;78.35
49827;BME280;35715;51.570;6.036;2022-11-30T14:44:16;102355.75;;;9.41;78.42
49827;BME280;35715;51.570;6.036;2022-11-30T14:46:41;102362.75;;;9.43;78.53
49827;BME280;35715;51.570;6.036;2022-11-30T14:49:21;102356.84;;;9.44;78.26
49827;BME280;35715;51.570;6.036;2022-11-30T14:51:59;102361.34;;;9.46;78.76
49827;BME280;35715;51.570;6.036;2022-11-30T14:54:38;102361.56;;;9.39;79.67
49827;BME280;35715;51.570;6.036;2022-11-30T15:00:02;102356.56;;;9.32;79.33
49827;BME280;35715;51.570;6.036;2022-11-30T15:02:31;102357.00;;;9.36;79.27
49827;BME280;35715;51.570;6.036;2022-11-30T15:05:04;102358.22;;;9.31;79.54
49827;BME280;35715;51.570;6.036;2022-11-30T15:07:31;102358.84;;;9.29;79.80
49827;BME280;35715;51.570;6.036;2022-11-30T15:12:28;102362.50;;;9.22;80.18
49827;BME280;35715;51.570;6.036;2022-11-30T15:17:30;102358.09;;;9.21;80.82
49827;BME280;35715;51.570;6.036;2022-11-30T15:19:56;102359.91;;;9.22;80.58
49827;BME280;35715;51.570;6.036;2022-11-30T15:22:22;102354.00;;;9.14;80.70
49827;BME280;35715;51.570;6.036;2022-11-30T15:24:48;102356.91;;;9.09;80.65
49827;BME280;35715;51.570;6.036;2022-11-30T15:27:30;102355.06;;;9.08;80.97
49827;BME280;35715;51.570;6.036;2022-11-30T15:29:58;102350.06;;;9.09;81.10
49827;BME280;35715;51.570;6.036;2022-11-30T15:32:25;102349.03;;;8.98;81.25